• Join FlightAware (Why Join?)
  • Login
  • US Flag 
Rudolph Flight #1: Scheduled 
10:52PM EST


 

Airport Tracker/Info


-or-


 

Live Flight TrackerFlight Track Log ✈ CPT1940 ✈ 19-Feb-2014 ✈ KCOD - KCPR

Flight Track Log - Related Links

Times and Time Zones

All times are in EST time to prevent confusion due to time zone crossing. See the CPT1940 flight status page for this flight to view local times or setup timezone preferences in your user account.

Time Position Orientation Groundspeed Altitude Reporting Facility
EST Latitude Longitude Course Direction KTS MPH feet Rate Location/Type
03:32PM 43.0242 -106.1631 135° Southeast 170 196 9,000  Level Denver Center
03:33PM 43.0053 -106.1033 113° Southeast 175 201 8,900  Descending Denver Center
03:34PM 42.9817 -106.0297 114° Southeast 184 212 9,100  Climbing Denver Center
03:35PM 42.9625 -105.9689 113° Southeast 184 212 9,000  Descending Denver Center
03:36PM 41.8740 -103.5956 135° Southeast  Level Estimated
03:36PM 42.9411 -105.9014 113° Southeast 178 205 9,100  Level Denver Center
03:37PM 41.8740 -103.5956 135° Southeast  Level Estimated
03:37PM 42.9203 -105.8400 115° Southeast 181 208 9,000  Level Denver Center
03:38PM 42.8986 -105.7689 113° Southeast 182 209 9,100  Climbing Denver Center
03:39PM 42.8783 -105.7108 115° Southeast 180 207 9,000 -60 Descending Denver Center
03:40PM 42.8575 -105.6447 113° Southeast 174 200 9,000  Level Denver Center
03:41PM 42.8372 -105.5867 115° Southeast 175 201 9,000 -60 Level Denver Center
03:42PM 42.8169 -105.5283 115° Southeast 177 204 8,900  Descending Denver Center
03:43PM 42.7944 -105.4569 113° Southeast 181 208 9,000  Climbing Denver Center
03:44PM 42.7756 -105.3947 112° Southeast 183 211 9,000  Level Denver Center
03:45PM 42.7503 -105.3186 114° Southeast 192 221 9,000  Level Denver Center
03:46PM 42.7292 -105.2561 115° Southeast 192 221 9,000  Level Denver Center
03:47PM 42.7058 -105.1828 113° Southeast 190 219 9,000  Level Denver Center
03:48PM 42.6861 -105.1247 115° Southeast 185 213 9,000  Level Denver Center
03:49PM 42.6644 -105.0567 113° Southeast 179 206 9,000  Level Denver Center
03:50PM 42.6442 -104.9989 115° Southeast 177 204 9,000  Level Denver Center
03:51PM 42.6244 -104.9400 114° Southeast 178 205 9,000  Level Denver Center
03:52PM 42.6031 -104.8742 114° Southeast 174 200 9,000  Level Denver Center
03:53PM 42.5839 -104.8197 116° Southeast 171 197 9,000  Level Denver Center
03:55PM 42.5633 -104.7561 114° Southeast 168 193 9,100  Climbing Denver Center
03:56PM 42.5439 -104.6997 115° Southeast 170 196 9,100  Level Denver Center
03:57PM 42.5203 -104.6308 115° Southeast 179 206 9,100 -60 Level Denver Center
03:58PM 42.4933 -104.5803 126° Southeast 176 203 9,000 -120 Descending Denver Center
03:59PM 42.4600 -104.5286 131° Southeast 169 194 8,900 -60 Descending Denver Center
04:00PM 42.4328 -104.4850 130° Southeast 163 188 8,900  Level Denver Center
04:01PM 42.4014 -104.4342 130° Southeast 159 183 9,000 60 Climbing Denver Center
04:02PM 42.3744 -104.3908 130° Southeast 158 182 9,100  Climbing Denver Center
04:03PM 42.3419 -104.3392 130° Southeast 160 184 9,000 -60 Descending Denver Center
04:04PM 42.3153 -104.2942 129° Southeast 160 184 9,000  Level Denver Center
04:05PM 42.2842 -104.2433 130° Southeast 159 183 9,000  Level Denver Center
04:06PM 42.2561 -104.1992 131° Southeast 159 183 9,000  Level Denver Center
04:07PM 42.2292 -104.1539 129° Southeast 161 185 9,000  Level Denver Center
04:08PM 42.1964 -104.1019 130° Southeast 162 186 9,000  Level Denver Center
04:09PM 42.1686 -104.0594 131° Southeast 160 184 9,100  Climbing Denver Center
04:10PM 42.1353 -104.0094 132° Southeast 160 184 9,000 -240 Descending Denver Center
04:11PM 42.1081 -103.9653 130° Southeast 160 184 8,700 -480 Descending Denver Center
04:12PM 42.0767 -103.9106 128° Southeast 163 188 8,100 -600 Descending Denver Center